createdAt,value
2023-03-01T00:01:19.375Z,13.40
2023-03-01T00:03:46.627Z,14.13
2023-03-01T00:06:13.922Z,13.37
2023-03-01T00:08:40.638Z,12.93
2023-03-01T00:11:11.223Z,13.03
2023-03-01T00:13:38.415Z,13.10
2023-03-01T00:16:07.597Z,12.90
2023-03-01T00:18:34.405Z,13.53
2023-03-01T00:21:01.156Z,11.77
2023-03-01T00:23:28.052Z,12.23
2023-03-01T00:25:55.099Z,12.73
2023-03-01T00:28:22.178Z,12.30
2023-03-01T00:30:49.171Z,13.53
2023-03-01T00:33:16.146Z,13.10
2023-03-01T00:35:43.026Z,13.07
2023-03-01T00:38:09.839Z,13.23
2023-03-01T00:40:37.525Z,13.60
2023-03-01T00:43:05.120Z,13.03
2023-03-01T00:45:32.273Z,13.13
2023-03-01T00:47:59.118Z,12.80
2023-03-01T00:50:25.884Z,13.23
2023-03-01T00:53:09.782Z,11.13
2023-03-01T00:55:57.620Z,14.50
2023-03-01T00:58:26.783Z,12.83
2023-03-01T01:00:53.616Z,13.03
2023-03-01T01:03:20.495Z,12.73
2023-03-01T01:05:47.199Z,13.83
2023-03-01T01:08:13.998Z,13.17
2023-03-01T01:10:40.757Z,12.17
2023-03-01T01:13:07.576Z,12.03
2023-03-01T01:15:35.844Z,13.30
2023-03-01T01:18:02.824Z,12.70
2023-03-01T01:20:29.932Z,13.43
2023-03-01T01:22:56.766Z,13.97
2023-03-01T01:25:25.891Z,13.70
2023-03-01T01:27:52.780Z,13.00
2023-03-01T01:30:19.653Z,12.67
2023-03-01T01:32:46.382Z,11.93
2023-03-01T01:35:13.139Z,12.77
2023-03-01T01:37:39.865Z,12.90
2023-03-01T01:40:07.220Z,11.30
2023-03-01T01:42:33.980Z,12.50
2023-03-01T01:45:33.721Z,13.43
2023-03-01T01:48:11.687Z,14.20
2023-03-01T01:50:41.502Z,12.50
2023-03-01T01:53:15.648Z,13.17
2023-03-01T01:55:46.177Z,11.97
2023-03-01T01:58:18.358Z,13.37
2023-03-01T02:00:45.369Z,13.23
2023-03-01T02:03:20.990Z,13.10
2023-03-01T02:05:55.744Z,12.60
2023-03-01T02:08:26.210Z,14.37
2023-03-01T02:10:53.667Z,13.67
2023-03-01T02:13:20.548Z,14.23
2023-03-01T02:15:47.426Z,14.20
2023-03-01T02:18:19.208Z,14.63
2023-03-01T02:21:16.007Z,14.83
2023-03-01T02:23:43.107Z,15.10
2023-03-01T02:26:35.831Z,15.27
2023-03-01T02:29:02.660Z,13.13
2023-03-01T02:31:45.721Z,13.20
2023-03-01T02:34:15.911Z,13.88
2023-03-01T02:36:45.938Z,13.37
2023-03-01T02:39:18.448Z,12.73
2023-03-01T02:41:52.376Z,13.48
2023-03-01T02:44:19.438Z,12.77
2023-03-01T02:46:50.731Z,13.70
2023-03-01T02:49:29.914Z,12.83
2023-03-01T02:52:15.275Z,12.67
2023-03-01T02:55:09.294Z,13.07
2023-03-01T02:57:39.558Z,12.40
2023-03-01T03:00:19.966Z,13.30
2023-03-01T03:02:49.939Z,12.67
2023-03-01T03:05:22.716Z,13.27
2023-03-01T03:07:50.448Z,11.77
2023-03-01T03:10:21.515Z,11.17
2023-03-01T03:12:53.377Z,11.30
2023-03-01T03:15:21.485Z,12.73
2023-03-01T03:17:48.523Z,13.03
2023-03-01T03:20:19.981Z,12.70
2023-03-01T03:22:51.620Z,13.57
2023-03-01T03:25:19.475Z,13.47
2023-03-01T03:27:48.510Z,13.13
2023-03-01T03:30:20.556Z,13.47
2023-03-01T03:32:54.300Z,12.53
2023-03-01T03:35:23.641Z,13.33
2023-03-01T03:38:07.320Z,14.87
2023-03-01T03:40:41.851Z,13.57
2023-03-01T03:43:12.032Z,13.10
2023-03-01T03:45:38.864Z,12.73
2023-03-01T03:48:08.795Z,13.40
2023-03-01T03:50:35.889Z,13.10
2023-03-01T03:53:04.925Z,14.20
2023-03-01T03:55:32.004Z,14.43
2023-03-01T03:58:02.899Z,14.83
2023-03-01T04:00:29.846Z,12.37
2023-03-01T04:02:57.382Z,14.87
2023-03-01T04:05:24.691Z,13.87
2023-03-01T04:08:01.838Z,13.27
2023-03-01T04:10:35.091Z,12.07
2023-03-01T04:15:29.207Z,12.63
2023-03-01T04:17:56.878Z,12.70
2023-03-01T04:20:27.062Z,13.97
2023-03-01T04:22:58.347Z,14.17
2023-03-01T04:25:25.387Z,13.67
2023-03-01T04:27:52.133Z,14.43
2023-03-01T04:30:18.853Z,14.53
2023-03-01T04:32:45.613Z,12.63
2023-03-01T04:35:12.400Z,13.43
2023-03-01T04:37:39.486Z,14.23
2023-03-01T04:40:13.869Z,11.93
2023-03-01T04:42:40.633Z,12.67
2023-03-01T04:45:13.906Z,12.27
2023-03-01T04:47:45.362Z,12.40
2023-03-01T04:50:17.942Z,13.57
2023-03-01T04:52:45.268Z,14.25
2023-03-01T04:55:12.312Z,13.97
2023-03-01T04:57:39.650Z,13.97
2023-03-01T05:00:20.897Z,13.47
2023-03-01T05:03:00.218Z,14.13
2023-03-01T05:05:32.364Z,13.60
2023-03-01T05:08:01.683Z,13.25
2023-03-01T05:10:34.446Z,14.73
2023-03-01T05:13:01.767Z,13.65
2023-03-01T05:15:30.629Z,15.00
2023-03-01T05:18:00.213Z,12.87
2023-03-01T05:20:29.474Z,15.20
2023-03-01T05:23:00.839Z,14.90
2023-03-01T05:25:33.542Z,15.50
2023-03-01T05:28:06.589Z,15.65
2023-03-01T05:33:01.740Z,15.90
2023-03-01T05:35:30.419Z,16.37
2023-03-01T05:37:57.317Z,15.63
2023-03-01T05:40:25.352Z,15.33
2023-03-01T05:42:57.120Z,15.73
2023-03-01T05:45:25.899Z,14.73
2023-03-01T05:47:53.464Z,15.63
2023-03-01T05:50:26.278Z,15.30
2023-03-01T05:53:08.747Z,14.10
2023-03-01T05:55:37.063Z,15.57
2023-03-01T05:58:06.314Z,15.70
2023-03-01T06:00:34.256Z,17.90
2023-03-01T06:03:02.965Z,18.47
2023-03-01T06:05:30.567Z,16.70
2023-03-01T06:08:00.757Z,17.53
2023-03-01T06:10:28.220Z,16.77
2023-03-01T06:12:55.061Z,18.57
2023-03-01T06:15:22.384Z,19.10
2023-03-01T06:17:49.578Z,18.60
2023-03-01T06:20:20.718Z,18.07
2023-03-01T06:22:48.549Z,16.67
2023-03-01T06:25:21.517Z,17.10
2023-03-01T06:27:49.659Z,17.23
2023-03-01T06:30:18.869Z,18.20
2023-03-01T06:32:45.647Z,19.33
2023-03-01T06:35:15.280Z,18.13
2023-03-01T06:37:42.477Z,19.63
2023-03-01T06:40:12.424Z,18.27
2023-03-01T06:42:41.899Z,17.90
2023-03-01T06:45:09.982Z,19.10
2023-03-01T06:47:36.923Z,19.40
2023-03-01T06:50:04.479Z,19.43
2023-03-01T06:52:31.494Z,17.67
2023-03-01T06:54:58.248Z,19.67
2023-03-01T06:57:25.194Z,19.93
2023-03-01T06:59:51.987Z,20.27
2023-03-01T07:02:18.984Z,19.70
2023-03-01T07:04:45.831Z,18.83
2023-03-01T07:07:13.084Z,18.70
2023-03-01T07:09:39.846Z,19.20
2023-03-01T07:12:06.963Z,21.53
2023-03-01T07:14:33.708Z,20.33
2023-03-01T07:17:00.516Z,17.23
2023-03-01T07:19:27.714Z,16.90
2023-03-01T07:21:54.943Z,18.10
2023-03-01T07:24:21.666Z,16.10
2023-03-01T07:26:52.531Z,16.83
2023-03-01T07:29:19.352Z,16.52
2023-03-01T07:31:46.730Z,16.97
2023-03-01T07:34:13.476Z,17.45
2023-03-01T07:36:43.358Z,17.67
2023-03-01T07:39:11.525Z,18.50
2023-03-01T07:41:38.698Z,18.70
2023-03-01T07:44:05.675Z,18.50
2023-03-01T07:46:32.864Z,17.83
2023-03-01T07:48:59.762Z,16.88
2023-03-01T07:51:26.462Z,18.73
2023-03-01T07:53:53.189Z,17.42
2023-03-01T07:56:20.558Z,19.33
2023-03-01T07:58:49.221Z,18.45
2023-03-01T08:01:19.677Z,17.73
2023-03-01T08:03:47.024Z,16.90
2023-03-01T08:06:16.306Z,18.20
2023-03-01T08:08:43.126Z,19.83
2023-03-01T08:11:12.611Z,20.48
2023-03-01T08:13:39.461Z,20.00
2023-03-01T08:16:13.771Z,22.65
2023-03-01T08:18:40.722Z,19.85
2023-03-01T08:21:13.534Z,20.05
2023-03-01T08:23:41.303Z,18.23
2023-03-01T08:26:14.503Z,17.60
2023-03-01T08:28:42.363Z,18.25
2023-03-01T08:31:16.102Z,17.83
2023-03-01T08:33:43.291Z,18.40
2023-03-01T08:36:10.164Z,16.63
2023-03-01T08:38:36.892Z,17.48
2023-03-01T08:41:04.589Z,16.67
2023-03-01T08:43:32.238Z,17.02
2023-03-01T08:45:59.021Z,16.13
2023-03-01T08:48:28.168Z,17.67
2023-03-01T08:50:54.908Z,15.77
2023-03-01T08:53:21.630Z,15.77
2023-03-01T08:55:50.486Z,14.55
2023-03-01T08:58:17.572Z,14.73
2023-03-01T09:00:44.430Z,13.90
2023-03-01T09:03:11.177Z,14.05
2023-03-01T09:05:38.091Z,16.15
2023-03-01T09:08:05.069Z,13.80
2023-03-01T09:10:31.846Z,13.52
2023-03-01T09:12:58.599Z,13.20
2023-03-01T09:15:25.994Z,14.77
2023-03-01T09:17:53.321Z,16.92
2023-03-01T09:20:20.105Z,15.23
2023-03-01T09:22:46.903Z,16.05
2023-03-01T09:25:13.707Z,14.77
2023-03-01T09:27:40.401Z,15.30
2023-03-01T09:30:08.197Z,14.57
2023-03-01T09:32:35.144Z,13.65
2023-03-01T09:35:01.976Z,15.45
2023-03-01T09:37:29.243Z,15.93
2023-03-01T09:39:56.273Z,13.45
2023-03-01T09:42:23.107Z,15.45
2023-03-01T09:44:55.214Z,14.07
2023-03-01T09:47:28.715Z,13.90
2023-03-01T09:50:05.180Z,14.43
2023-03-01T09:52:53.398Z,13.15
2023-03-01T09:55:41.348Z,13.18
2023-03-01T09:58:39.542Z,13.02
2023-03-01T10:01:15.219Z,13.63
2023-03-01T10:04:04.701Z,14.65
2023-03-01T10:06:35.401Z,14.48
2023-03-01T10:09:08.506Z,14.25
2023-03-01T10:11:40.564Z,13.07
2023-03-01T10:14:35.307Z,14.70
2023-03-01T10:17:21.659Z,14.00
2023-03-01T10:19:48.695Z,14.95
2023-03-01T10:22:22.595Z,12.73
2023-03-01T10:24:51.481Z,11.98
2023-03-01T10:27:25.914Z,10.68
2023-03-01T10:30:13.767Z,10.50
2023-03-01T10:32:41.082Z,11.10
2023-03-01T10:35:26.044Z,10.77
2023-03-01T10:38:04.411Z,11.40
2023-03-01T10:40:32.292Z,12.10
2023-03-01T10:43:04.874Z,11.35
2023-03-01T10:45:40.180Z,12.33
2023-03-01T10:48:20.394Z,12.85
2023-03-01T10:50:50.204Z,11.70
2023-03-01T10:53:30.404Z,11.35
2023-03-01T10:56:02.065Z,11.45
2023-03-01T10:58:30.329Z,11.63
2023-03-01T11:01:03.481Z,11.77
2023-03-01T11:03:33.010Z,11.52
2023-03-01T11:06:05.994Z,12.00
2023-03-01T11:08:42.483Z,12.25
2023-03-01T11:11:21.521Z,12.73
2023-03-01T11:13:53.284Z,11.80
2023-03-01T11:16:30.651Z,12.38
2023-03-01T11:19:04.745Z,11.32
2023-03-01T11:21:34.374Z,11.85
2023-03-01T11:24:02.844Z,11.02
2023-03-01T11:26:32.400Z,11.35
2023-03-01T11:29:04.841Z,11.73
2023-03-01T11:31:33.273Z,11.88
2023-03-01T11:34:08.961Z,12.60
2023-03-01T11:36:59.438Z,11.98
2023-03-01T11:40:03.765Z,12.82
2023-03-01T11:42:47.238Z,14.63
2023-03-01T11:45:14.506Z,14.25
2023-03-01T11:47:59.298Z,14.18
2023-03-01T11:50:37.798Z,14.45
2023-03-01T11:53:46.675Z,15.10
2023-03-01T11:56:13.404Z,14.43
2023-03-01T11:58:49.035Z,15.20
2023-03-01T12:01:18.516Z,14.52
2023-03-01T12:03:48.279Z,15.07
2023-03-01T12:06:41.635Z,14.23
2023-03-01T12:09:27.057Z,15.07
2023-03-01T12:12:26.930Z,14.10
2023-03-01T12:15:29.418Z,13.10
2023-03-01T12:18:29.127Z,13.98
2023-03-01T12:21:27.581Z,13.63
2023-03-01T12:24:33.632Z,13.40
2023-03-01T12:27:44.385Z,13.88
2023-03-01T12:30:24.016Z,13.13
2023-03-01T12:33:30.320Z,13.65
2023-03-01T12:36:21.338Z,13.80
2023-03-01T12:38:57.710Z,14.98
2023-03-01T12:41:43.576Z,14.55
2023-03-01T12:44:37.051Z,13.82
2023-03-01T12:47:21.032Z,14.43
2023-03-01T12:49:56.285Z,14.07
2023-03-01T12:52:36.822Z,15.68
2023-03-01T12:55:16.860Z,15.52
2023-03-01T12:58:00.579Z,17.08
2023-03-01T13:03:11.564Z,16.67
2023-03-01T13:05:52.617Z,15.40
2023-03-01T13:08:40.273Z,15.82
2023-03-01T13:11:18.532Z,15.48
2023-03-01T13:13:47.418Z,16.35
2023-03-01T13:16:29.432Z,16.55
2023-03-01T13:19:18.644Z,16.13
2023-03-01T13:21:47.259Z,15.50
2023-03-01T13:24:30.997Z,15.05
2023-03-01T13:29:56.424Z,15.32
2023-03-01T13:32:47.993Z,17.10
2023-03-01T13:35:20.595Z,16.50
2023-03-01T13:37:48.133Z,16.03
2023-03-01T13:40:19.385Z,15.88
2023-03-01T13:42:59.248Z,16.38
2023-03-01T13:45:41.060Z,15.73
2023-03-01T13:48:19.660Z,16.08
2023-03-01T13:51:10.725Z,15.23
2023-03-01T13:53:42.799Z,15.43
2023-03-01T13:56:39.325Z,15.10
2023-03-01T13:59:16.146Z,15.75
2023-03-01T14:01:44.009Z,14.90
2023-03-01T14:04:28.888Z,15.93
2023-03-01T14:07:20.889Z,14.35
2023-03-01T14:10:00.745Z,13.48
2023-03-01T14:12:35.852Z,13.27
2023-03-01T14:15:05.772Z,12.48
2023-03-01T14:17:48.508Z,11.98
2023-03-01T14:20:27.754Z,11.90
2023-03-01T14:23:00.593Z,12.20
2023-03-01T14:25:37.540Z,12.27
2023-03-01T14:28:17.107Z,13.07
2023-03-01T14:30:46.824Z,11.65
2023-03-01T14:33:24.576Z,12.10
2023-03-01T14:36:10.529Z,12.13
2023-03-01T14:38:42.831Z,12.15
2023-03-01T14:41:13.774Z,13.03
2023-03-01T14:43:44.784Z,13.02
2023-03-01T14:46:39.714Z,13.02
2023-03-01T14:49:20.041Z,13.15
2023-03-01T14:51:59.952Z,12.57
2023-03-01T14:54:49.144Z,14.25
2023-03-01T14:57:22.810Z,12.10
2023-03-01T14:59:53.837Z,12.50
2023-03-01T15:02:23.969Z,12.65
2023-03-01T15:04:55.188Z,12.88
2023-03-01T15:07:22.689Z,12.70
2023-03-01T15:09:49.457Z,13.35
2023-03-01T15:12:28.319Z,13.45
2023-03-01T15:15:03.926Z,12.82
2023-03-01T15:17:39.070Z,12.73
2023-03-01T15:20:18.328Z,13.25
2023-03-01T15:22:49.459Z,12.82
2023-03-01T15:25:25.340Z,12.82
2023-03-01T15:27:54.683Z,12.52
2023-03-01T15:30:35.682Z,12.88
2023-03-01T15:33:38.435Z,12.65
2023-03-01T15:36:33.617Z,12.75
2023-03-01T15:39:01.794Z,13.20
2023-03-01T15:41:47.476Z,14.00
2023-03-01T15:44:27.915Z,12.80
2023-03-01T15:46:57.367Z,13.43
2023-03-01T15:49:54.581Z,12.70
2023-03-01T15:52:32.546Z,11.57
2023-03-01T15:55:02.184Z,12.48
2023-03-01T15:57:29.899Z,13.18
2023-03-01T15:59:56.687Z,12.30
2023-03-01T16:02:25.225Z,13.02
2023-03-01T16:04:52.098Z,14.43
2023-03-01T16:07:18.840Z,13.57
2023-03-01T16:09:45.834Z,13.65
2023-03-01T16:12:17.268Z,13.23
2023-03-01T16:14:44.202Z,13.70
2023-03-01T16:17:11.224Z,13.68
2023-03-01T16:19:41.997Z,13.30
2023-03-01T16:22:11.365Z,13.95
2023-03-01T16:24:38.466Z,13.43
2023-03-01T16:27:05.454Z,13.95
2023-03-01T16:29:32.242Z,14.05
2023-03-01T16:32:02.400Z,13.57
2023-03-01T16:34:29.557Z,13.55
2023-03-01T16:36:56.354Z,14.45
2023-03-01T16:39:23.140Z,13.93
2023-03-01T16:41:49.852Z,13.82
2023-03-01T16:44:16.627Z,14.43
2023-03-01T16:46:44.496Z,13.73
2023-03-01T16:49:11.215Z,13.90
2023-03-01T16:51:38.060Z,13.43
2023-03-01T16:54:05.655Z,14.27
2023-03-01T16:56:35.229Z,13.95
2023-03-01T16:59:04.444Z,13.88
2023-03-01T17:01:40.380Z,14.10
2023-03-01T17:04:10.116Z,12.95
2023-03-01T17:06:36.883Z,13.48
2023-03-01T17:09:03.980Z,13.60
2023-03-01T17:11:31.372Z,13.50
2023-03-01T17:13:58.257Z,13.80
2023-03-01T17:16:25.043Z,14.30
2023-03-01T17:18:51.807Z,14.15
2023-03-01T17:21:18.780Z,13.73
2023-03-01T17:23:46.521Z,14.43
2023-03-01T17:26:13.696Z,13.77
2023-03-01T17:28:40.918Z,14.05
2023-03-01T17:31:08.221Z,13.32
2023-03-01T17:33:35.415Z,15.07
2023-03-01T17:36:02.538Z,14.68
2023-03-01T17:38:29.401Z,14.00
2023-03-01T17:40:59.703Z,13.90
2023-03-01T17:43:27.157Z,14.88
2023-03-01T17:45:54.632Z,14.68
2023-03-01T17:48:21.787Z,15.23
2023-03-01T17:50:49.048Z,14.02
2023-03-01T17:53:15.948Z,11.82
2023-03-01T17:55:43.949Z,13.45
2023-03-01T17:58:13.485Z,13.73
2023-03-01T18:00:40.339Z,13.98
2023-03-01T18:03:08.362Z,12.35
2023-03-01T18:05:37.836Z,11.75
2023-03-01T18:08:04.854Z,11.45
2023-03-01T18:10:32.589Z,11.77
2023-03-01T18:12:59.624Z,10.52
2023-03-01T18:15:27.361Z,9.55
2023-03-01T18:17:54.245Z,10.68
2023-03-01T18:20:21.645Z,10.68
2023-03-01T18:22:49.175Z,10.15
2023-03-01T18:25:15.997Z,10.10
2023-03-01T18:27:42.814Z,10.73
2023-03-01T18:30:10.627Z,10.98
2023-03-01T18:32:39.582Z,11.00
2023-03-01T18:35:07.770Z,9.93
2023-03-01T18:37:34.489Z,9.90
2023-03-01T18:40:01.270Z,9.07
2023-03-01T18:42:28.025Z,10.50
2023-03-01T18:44:54.843Z,9.27
2023-03-01T18:47:22.757Z,9.93
2023-03-01T18:49:49.484Z,8.95
2023-03-01T18:52:16.700Z,10.38
2023-03-01T18:54:43.401Z,9.88
2023-03-01T18:57:10.213Z,9.82
2023-03-01T18:59:36.927Z,10.60
2023-03-01T19:02:03.785Z,9.80
2023-03-01T19:04:30.550Z,9.93
2023-03-01T19:06:57.792Z,9.73
2023-03-01T19:09:24.505Z,10.65
2023-03-01T19:11:51.221Z,9.57
2023-03-01T19:14:17.930Z,9.48
2023-03-01T19:16:44.649Z,11.32
2023-03-01T19:19:12.119Z,10.65
2023-03-01T19:21:38.846Z,9.60
2023-03-01T19:24:05.834Z,9.48
2023-03-01T19:26:33.237Z,10.23
2023-03-01T19:29:00.780Z,9.45
2023-03-01T19:31:29.640Z,9.32
2023-03-01T19:34:10.424Z,9.40
2023-03-01T19:36:42.615Z,9.48
2023-03-01T19:39:11.214Z,9.57
2023-03-01T19:41:38.060Z,9.38
2023-03-01T19:44:05.941Z,9.98
2023-03-01T19:46:33.975Z,10.25
2023-03-01T19:49:03.047Z,9.75
2023-03-01T19:51:33.218Z,11.95
2023-03-01T19:53:59.978Z,10.50
2023-03-01T19:56:26.801Z,10.15
2023-03-01T19:59:00.125Z,9.57
2023-03-01T20:01:32.118Z,11.35
2023-03-01T20:03:58.928Z,11.10
2023-03-01T20:06:25.990Z,14.00
2023-03-01T20:08:53.021Z,13.80
2023-03-01T20:11:20.705Z,12.57
2023-03-01T20:13:48.116Z,12.13
2023-03-01T20:16:20.091Z,12.82
2023-03-01T20:18:46.911Z,12.75
2023-03-01T20:21:23.456Z,12.50
2023-03-01T20:23:51.698Z,13.02
2023-03-01T20:26:21.400Z,12.90
2023-03-01T20:28:50.611Z,11.82
2023-03-01T20:31:20.303Z,12.68
2023-03-01T20:33:47.724Z,12.55
2023-03-01T20:36:15.265Z,14.02
2023-03-01T20:38:42.032Z,14.43
2023-03-01T20:41:11.341Z,16.05
2023-03-01T20:43:38.701Z,15.55
2023-03-01T20:46:07.193Z,14.73
2023-03-01T20:48:34.144Z,13.57
2023-03-01T20:51:05.700Z,16.08
2023-03-01T20:53:32.849Z,15.05
2023-03-01T20:56:04.123Z,13.80
2023-03-01T20:58:35.605Z,15.80
2023-03-01T21:01:03.711Z,14.48
2023-03-01T21:03:30.888Z,12.90
2023-03-01T21:05:58.963Z,13.63
2023-03-01T21:08:26.185Z,13.60
2023-03-01T21:10:53.830Z,14.77
2023-03-01T21:13:21.127Z,15.07
2023-03-01T21:15:59.989Z,13.70
2023-03-01T21:18:29.925Z,15.07
2023-03-01T21:21:01.800Z,14.50
2023-03-01T21:23:30.362Z,14.80
2023-03-01T21:26:12.036Z,15.02
2023-03-01T21:28:40.566Z,15.20
2023-03-01T21:31:16.438Z,17.48
2023-03-01T21:33:51.898Z,16.17
2023-03-01T21:36:20.030Z,16.05
2023-03-01T21:38:48.926Z,15.23
2023-03-01T21:41:17.612Z,15.40
2023-03-01T21:43:45.956Z,15.90
2023-03-01T21:46:16.039Z,17.80
2023-03-01T21:48:45.149Z,16.50
2023-03-01T21:51:15.138Z,18.05
2023-03-01T21:53:43.588Z,13.75
2023-03-01T21:56:14.985Z,15.98
2023-03-01T21:58:41.753Z,14.35
2023-03-01T22:01:10.924Z,15.77
2023-03-01T22:03:45.181Z,14.98
2023-03-01T22:06:19.555Z,18.83
2023-03-01T22:08:55.109Z,19.52
2023-03-01T22:11:23.040Z,17.35
2023-03-01T22:13:52.186Z,18.40
2023-03-01T22:16:21.127Z,26.58
2023-03-01T22:18:48.288Z,29.17
2023-03-01T22:21:15.686Z,18.25
2023-03-01T22:23:42.792Z,15.68
2023-03-01T22:26:49.366Z,16.73
2023-03-01T22:29:19.598Z,17.33
2023-03-01T22:31:46.434Z,14.48
2023-03-01T22:34:14.773Z,14.20
2023-03-01T22:36:41.609Z,14.70
2023-03-01T22:39:08.722Z,14.88
2023-03-01T22:41:38.524Z,15.98
2023-03-01T22:44:05.397Z,15.30
2023-03-01T22:46:32.476Z,13.45
2023-03-01T22:48:59.534Z,15.63
2023-03-01T22:51:29.536Z,13.50
2023-03-01T22:53:57.394Z,14.20
2023-03-01T22:56:28.967Z,15.32
2023-03-01T22:58:57.961Z,14.50
2023-03-01T23:01:26.101Z,15.20
2023-03-01T23:03:53.591Z,14.85
2023-03-01T23:06:21.922Z,16.45
2023-03-01T23:08:56.968Z,16.23
2023-03-01T23:11:25.144Z,15.52
2023-03-01T23:13:53.275Z,14.43
2023-03-01T23:16:26.010Z,14.00
2023-03-01T23:18:59.961Z,15.20
2023-03-01T23:21:27.211Z,14.18
2023-03-01T23:23:55.388Z,14.32
2023-03-01T23:26:22.450Z,13.82
2023-03-01T23:28:50.785Z,14.30
2023-03-01T23:31:18.243Z,13.50
2023-03-01T23:33:46.376Z,12.20
2023-03-01T23:36:20.397Z,13.23
2023-03-01T23:38:49.335Z,14.82
2023-03-01T23:41:25.783Z,14.45
2023-03-01T23:43:55.723Z,13.68
2023-03-01T23:46:24.737Z,13.75
2023-03-01T23:48:51.771Z,13.52
2023-03-01T23:51:19.280Z,15.32
2023-03-01T23:53:55.229Z,13.98
2023-03-01T23:56:27.384Z,14.55
2023-03-01T23:58:55.900Z,14.65
